Awendaw, South Carolina
Current Conditions -  °F | °C
As of 11:55 PM on Thursday 30 Oct 2014 (Local Time) from KGGE Reporting Station
Broken Clouds Broken Clouds  
Wind Chill: 55°   Ceiling: 3800
Heat Index: 55°   Visibility: 10mi
Dew Point: 54°   Wind: 0mph
Humidity: 94%   Direction: NA
Pressure: 29.94"   Gusts: NA
Location:  33.04°N, 79.61°W
Report Text: KGGE 310355Z AUTO 00000KT 10SM BKN038 BKN044 13/12 A2994 RMK AO2 LTG DSNT SE
Loading
Personal Weather Stations






























Interactive Weather Map New forecast layout! Learn more

10-Day Weather Forecast

Advertisements
Track Severe Weather on mobile